createdAt,value
2018-06-27T00:04:52.247Z,97524.57
2018-06-27T00:09:46.881Z,97525.31
2018-06-27T00:14:41.496Z,97523.42
2018-06-27T00:24:26.951Z,97518.72
2018-06-27T00:29:21.578Z,97520.19
2018-06-27T00:34:16.142Z,97509.15
2018-06-27T00:39:11.051Z,97510.70
2018-06-27T00:44:05.826Z,97506.50
2018-06-27T00:49:00.375Z,97505.51
2018-06-27T00:53:59.966Z,97496.75
2018-06-27T00:58:54.686Z,97496.08
2018-06-27T01:03:49.580Z,97488.81
2018-06-27T01:08:44.174Z,97493.71
2018-06-27T01:13:38.803Z,97486.81
2018-06-27T01:18:33.378Z,97475.15
2018-06-27T01:23:27.950Z,97468.55
2018-06-27T01:28:22.575Z,97468.63
2018-06-27T01:33:17.157Z,97473.06
2018-06-27T01:38:11.718Z,97476.42
2018-06-27T01:43:06.404Z,97473.17
2018-06-27T01:48:00.988Z,97470.56
2018-06-27T01:52:55.595Z,97472.78
2018-06-27T01:57:50.135Z,97470.45
2018-06-27T02:02:44.750Z,97469.02
2018-06-27T02:07:39.318Z,97471.25
2018-06-27T02:12:33.898Z,97465.66
2018-06-27T02:17:28.470Z,97468.66
2018-06-27T02:22:23.940Z,97474.34
2018-06-27T02:27:18.498Z,97479.85
2018-06-27T02:32:13.042Z,97480.34
2018-06-27T02:37:07.615Z,97478.59
2018-06-27T02:42:02.175Z,97483.77
2018-06-27T02:46:56.787Z,97488.98
2018-06-27T02:51:51.383Z,97481.98
2018-06-27T02:56:46.015Z,97480.17
2018-06-27T03:01:40.638Z,97482.93
2018-06-27T03:06:35.235Z,97479.25
2018-06-27T03:11:29.782Z,97478.02
2018-06-27T03:16:24.348Z,97485.55
2018-06-27T03:21:19.004Z,97482.67
2018-06-27T03:26:13.564Z,97486.30
2018-06-27T03:31:08.284Z,97486.81
2018-06-27T03:36:02.875Z,97488.80
2018-06-27T03:40:57.443Z,97500.53
2018-06-27T03:45:52.016Z,97500.12
2018-06-27T03:50:46.555Z,97510.48
2018-06-27T03:55:41.169Z,97514.80
2018-06-27T04:00:35.750Z,97514.05
2018-06-27T04:05:30.329Z,97519.34
2018-06-27T04:10:24.875Z,97522.82
2018-06-27T04:15:19.458Z,97516.20
2018-06-27T04:20:14.022Z,97527.14
2018-06-27T04:25:08.638Z,97516.33
2018-06-27T04:30:03.877Z,97517.83
2018-06-27T04:34:59.442Z,97522.15
2018-06-27T04:39:54.117Z,97525.66
2018-06-27T04:44:48.693Z,97535.47
2018-06-27T04:49:43.323Z,97531.79
2018-06-27T04:54:37.858Z,97523.48
2018-06-27T04:59:32.512Z,97518.67
2018-06-27T05:04:27.120Z,97519.44
2018-06-27T05:09:21.691Z,97511.77
2018-06-27T05:14:16.294Z,97507.44
2018-06-27T05:19:10.849Z,97514.34
2018-06-27T05:24:05.663Z,97513.79
2018-06-27T05:29:00.205Z,97511.62
2018-06-27T05:33:54.816Z,97515.13
2018-06-27T05:38:49.825Z,97516.52
2018-06-27T05:43:44.442Z,97527.20
2018-06-27T05:48:39.022Z,97525.66
2018-06-27T05:53:33.567Z,97537.63
2018-06-27T05:58:28.195Z,97543.28
2018-06-27T06:03:22.755Z,97539.92
2018-06-27T06:08:17.408Z,97550.27
2018-06-27T06:13:12.027Z,97551.56
2018-06-27T06:18:06.832Z,97554.20
2018-06-27T06:23:01.397Z,97554.13
2018-06-27T06:27:55.951Z,97546.37
2018-06-27T06:32:50.518Z,97546.88
2018-06-27T06:37:45.127Z,97543.76
2018-06-27T06:42:39.749Z,97543.23
2018-06-27T06:47:34.317Z,97540.09
2018-06-27T06:52:28.974Z,97542.30
2018-06-27T06:57:23.570Z,97540.05
2018-06-27T07:02:18.234Z,97539.58
2018-06-27T07:07:12.926Z,97541.17
2018-06-27T07:12:07.621Z,97542.82
2018-06-27T07:17:02.247Z,97545.72
2018-06-27T07:21:56.853Z,97542.45
2018-06-27T07:26:51.509Z,97542.23
2018-06-27T07:31:46.455Z,97542.95
2018-06-27T07:36:41.084Z,97544.09
2018-06-27T07:41:35.828Z,97539.55
2018-06-27T07:46:30.482Z,97540.45
2018-06-27T07:51:25.078Z,97528.53
2018-06-27T07:56:19.711Z,97533.59
2018-06-27T08:01:14.294Z,97531.15
2018-06-27T08:06:08.538Z,97532.02
2018-06-27T08:11:03.116Z,97524.02
2018-06-27T08:15:57.710Z,97524.91
2018-06-27T08:20:52.310Z,97520.16
2018-06-27T08:25:52.845Z,97519.33
2018-06-27T08:30:47.549Z,97516.80
2018-06-27T08:35:42.127Z,97504.56
2018-06-27T08:40:36.686Z,97499.92
2018-06-27T08:45:31.264Z,97502.16
2018-06-27T08:50:25.825Z,97492.09
2018-06-27T08:55:20.416Z,97481.08
2018-06-27T09:00:15.108Z,97488.80
2018-06-27T09:05:09.690Z,97474.38
2018-06-27T09:10:04.319Z,97474.12
2018-06-27T09:14:58.881Z,97474.95
2018-06-27T09:19:53.545Z,97465.27
2018-06-27T09:24:48.189Z,97461.73
2018-06-27T09:29:42.818Z,97460.36
2018-06-27T09:34:37.552Z,97463.48
2018-06-27T09:39:32.095Z,97459.05
2018-06-27T09:44:26.683Z,97447.29
2018-06-27T09:49:21.287Z,97444.33
2018-06-27T09:54:15.980Z,97437.58
2018-06-27T09:59:10.622Z,97439.96
2018-06-27T10:04:05.317Z,97435.75
2018-06-27T10:08:59.923Z,97421.91
2018-06-27T10:13:54.514Z,97423.73
2018-06-27T10:18:49.195Z,97429.94
2018-06-27T10:23:43.803Z,97425.00
2018-06-27T10:28:38.995Z,97405.52
2018-06-27T10:33:33.643Z,97421.27
2018-06-27T10:38:28.239Z,97406.04
2018-06-27T10:43:22.812Z,97398.05
2018-06-27T10:48:17.483Z,97389.67
2018-06-27T10:53:12.066Z,97388.94
2018-06-27T10:58:06.760Z,97385.08
2018-06-27T11:03:01.371Z,97379.46
2018-06-27T11:07:55.948Z,97373.05
2018-06-27T11:12:50.571Z,97368.53
2018-06-27T11:17:45.190Z,97359.22
2018-06-27T11:22:39.778Z,97366.02
2018-06-27T11:27:34.348Z,97363.97
2018-06-27T11:32:28.950Z,97353.37
2018-06-27T11:37:23.589Z,97347.69
2018-06-27T11:42:18.166Z,97337.11
2018-06-27T11:47:12.788Z,97336.88
2018-06-27T11:52:07.383Z,97323.81
2018-06-27T11:57:01.999Z,97326.53
2018-06-27T12:01:56.935Z,97324.93
2018-06-27T12:06:51.578Z,97316.43
2018-06-27T12:11:46.178Z,97314.91
2018-06-27T12:16:40.462Z,97312.70
2018-06-27T12:21:35.129Z,97315.00
2018-06-27T12:26:29.819Z,97310.80
2018-06-27T12:31:24.938Z,97298.67
2018-06-27T12:36:19.651Z,97302.52
2018-06-27T12:41:14.291Z,97309.87
2018-06-27T12:46:08.959Z,97298.75
2018-06-27T12:51:03.695Z,97295.56
2018-06-27T12:55:58.280Z,97289.80
2018-06-27T13:00:52.911Z,97283.32
2018-06-27T13:05:47.554Z,97280.20
2018-06-27T13:10:42.269Z,97281.80
2018-06-27T13:15:36.883Z,97280.02
2018-06-27T13:20:31.510Z,97283.11
2018-06-27T13:25:26.125Z,97284.64
2018-06-27T13:30:20.718Z,97277.55
2018-06-27T13:35:15.382Z,97289.66
2018-06-27T13:40:10.007Z,97279.69
2018-06-27T13:45:04.852Z,97288.32
2018-06-27T13:49:59.563Z,97280.02
2018-06-27T13:54:57.219Z,97287.67
2018-06-27T13:59:51.868Z,97285.46
2018-06-27T14:04:46.515Z,97292.83
2018-06-27T14:09:41.371Z,97293.66
2018-06-27T14:14:36.014Z,97298.79
2018-06-27T14:19:30.784Z,97290.09
2018-06-27T14:24:25.572Z,97288.65
2018-06-27T14:29:20.164Z,97284.33
2018-06-27T14:34:14.797Z,97278.70
2018-06-27T14:39:10.458Z,97280.51
2018-06-27T14:44:05.211Z,97286.33
2018-06-27T14:48:59.835Z,97282.86
2018-06-27T14:53:54.440Z,97287.89
2018-06-27T14:58:49.036Z,97284.58
2018-06-27T15:03:43.776Z,97277.16
2018-06-27T15:08:38.479Z,97269.02
2018-06-27T15:13:33.093Z,97260.91
2018-06-27T15:18:27.670Z,97255.04
2018-06-27T15:23:22.328Z,97238.83
2018-06-27T15:28:16.921Z,97242.13
2018-06-27T15:33:11.531Z,97235.93
2018-06-27T15:38:06.491Z,97222.16
2018-06-27T15:43:01.354Z,97216.84
2018-06-27T15:47:56.019Z,97215.34
2018-06-27T15:52:50.708Z,97211.97
2018-06-27T15:57:45.413Z,97201.24
2018-06-27T16:02:40.011Z,97206.31
2018-06-27T16:07:34.686Z,97201.45
2018-06-27T16:12:29.402Z,97204.80
2018-06-27T16:17:24.386Z,97202.95
2018-06-27T16:22:18.788Z,97202.04
2018-06-27T16:27:13.514Z,97203.63
2018-06-27T16:32:08.133Z,97202.95
2018-06-27T16:37:02.760Z,97204.01
2018-06-27T16:41:57.458Z,97208.55
2018-06-27T16:46:52.259Z,97211.30
2018-06-27T16:51:46.934Z,97208.72
2018-06-27T16:56:41.632Z,97208.92
2018-06-27T17:01:36.291Z,97211.91
2018-06-27T17:06:30.994Z,97211.69
2018-06-27T17:11:25.619Z,97212.95
2018-06-27T17:16:20.295Z,97208.95
2018-06-27T17:21:15.036Z,97210.85
2018-06-27T17:26:09.714Z,97208.98
2018-06-27T17:31:04.575Z,97207.86
2018-06-27T17:35:59.206Z,97208.72
2018-06-27T17:40:53.859Z,97212.70
2018-06-27T17:45:48.646Z,97213.18
2018-06-27T17:50:43.271Z,97215.39
2018-06-27T17:55:37.930Z,97214.91
2018-06-27T18:00:32.540Z,97216.14
2018-06-27T18:05:27.159Z,97220.48
2018-06-27T18:10:21.730Z,97223.66
2018-06-27T18:15:16.371Z,97223.02
2018-06-27T18:20:10.999Z,97229.67
2018-06-27T18:25:06.359Z,97228.09
2018-06-27T18:30:00.980Z,97235.97
2018-06-27T18:34:55.763Z,97232.39
2018-06-27T18:39:50.383Z,97243.95
2018-06-27T18:44:44.970Z,97249.05
2018-06-27T18:49:40.548Z,97249.77
2018-06-27T18:54:35.198Z,97252.56
2018-06-27T18:59:29.859Z,97254.66
2018-06-27T19:04:24.489Z,97257.58
2018-06-27T19:09:19.206Z,97256.08
2018-06-27T19:14:13.867Z,97263.73
2018-06-27T19:19:08.502Z,97267.15
2018-06-27T19:24:03.098Z,97271.40
2018-06-27T19:28:57.747Z,97271.63
2018-06-27T19:33:52.453Z,97277.77
2018-06-27T19:38:47.120Z,97284.41
2018-06-27T19:43:41.728Z,97287.64
2018-06-27T19:48:36.345Z,97291.21
2018-06-27T19:53:31.020Z,97295.59
2018-06-27T19:58:25.627Z,97298.53
2018-06-27T20:03:20.274Z,97299.84
2018-06-27T20:08:15.116Z,97308.58
2018-06-27T20:13:09.749Z,97317.41
2018-06-27T20:18:04.398Z,97320.58
2018-06-27T20:22:59.098Z,97318.84
2018-06-27T20:27:53.456Z,97332.19
2018-06-27T20:32:48.116Z,97329.66
2018-06-27T20:37:42.751Z,97324.58
2018-06-27T20:42:37.412Z,97325.31
2018-06-27T20:47:32.083Z,97323.91
2018-06-27T20:52:26.717Z,97325.95
2018-06-27T20:57:21.327Z,97328.31
2018-06-27T21:02:16.051Z,97333.16
2018-06-27T21:07:10.651Z,97330.15
2018-06-27T21:12:05.483Z,97332.00
2018-06-27T21:17:00.145Z,97332.11
2018-06-27T21:21:54.819Z,97337.20
2018-06-27T21:26:49.508Z,97342.73
2018-06-27T21:31:44.143Z,97345.59
2018-06-27T21:36:38.805Z,97357.73
2018-06-27T21:41:33.415Z,97356.20
2018-06-27T21:46:28.043Z,97361.91
2018-06-27T21:51:22.630Z,97361.98
2018-06-27T21:56:17.266Z,97357.40
2018-06-27T22:01:11.940Z,97359.74
2018-06-27T22:06:06.754Z,97357.63
2018-06-27T22:11:01.372Z,97362.68
2018-06-27T22:15:56.010Z,97366.35
2018-06-27T22:20:50.593Z,97360.37
2018-06-27T22:25:45.208Z,97354.53
2018-06-27T22:30:40.006Z,97348.05
2018-06-27T22:35:34.625Z,97350.08
2018-06-27T22:40:29.241Z,97356.69
2018-06-27T22:45:23.826Z,97351.85
2018-06-27T22:50:18.442Z,97351.02
2018-06-27T22:55:13.071Z,97343.00
2018-06-27T23:00:08.313Z,97345.27
2018-06-27T23:05:02.865Z,97344.02
2018-06-27T23:09:57.489Z,97339.44
2018-06-27T23:14:52.088Z,97343.35
2018-06-27T23:19:46.688Z,97335.69
2018-06-27T23:24:41.270Z,97331.67
2018-06-27T23:29:35.834Z,97341.09
2018-06-27T23:34:30.434Z,97336.64
2018-06-27T23:39:25.168Z,97336.34
2018-06-27T23:44:19.920Z,97335.48
2018-06-27T23:49:14.586Z,97332.66
2018-06-27T23:54:09.255Z,97328.70
2018-06-27T23:59:03.888Z,97321.56
